Time,TemperatureF,DewpointF,PressureIn,WindDirection,WindDirectionDegrees,WindSpeedMPH,WindSpeedGustMPH,Humidity,HourlyPrecipIn,Conditions,Clouds,dailyrainin,SoftwareType,DateUTC
2013-07-06 00:09:00,67.4,62.0,29.79,WSW,248,0.0,3.0,82,0.00,,,0.00,weatherlink.com 1.10,2013-07-06 07:09:00,
2013-07-06 00:24:00,67.5,62.0,29.79,SW,231,0.0,2.0,82,0.00,,,0.00,weatherlink.com 1.10,2013-07-06 07:24:00,
2013-07-06 00:39:00,67.7,62.0,29.79,SW,236,1.0,2.0,83,0.00,,,0.00,weatherlink.com 1.10,2013-07-06 07:39:00,
2013-07-06 00:54:00,67.5,62.0,29.78,SSE,167,1.0,3.0,82,0.00,,,0.00,weatherlink.com 1.10,2013-07-06 07:54:00,
2013-07-06 01:09:00,67.6,62.0,29.78,WSW,253,1.0,2.0,83,0.00,,,0.00,weatherlink.com 1.10,2013-07-06 08:09:00,
2013-07-06 01:24:00,67.5,62.0,29.78,WSW,252,1.0,1.0,83,0.00,,,0.00,weatherlink.com 1.10,2013-07-06 08:24:00,
2013-07-06 01:39:00,67.5,62.0,29.78,SSW,203,0.0,1.0,83,0.00,,,0.00,weatherlink.com 1.10,2013-07-06 08:39:00,
2013-07-06 01:54:00,67.5,62.0,29.77,SSW,203,0.0,1.0,83,0.00,,,0.00,weatherlink.com 1.10,2013-07-06 08:54:00,
2013-07-06 02:09:00,67.5,62.0,29.77,SW,214,0.0,1.0,83,0.00,,,0.00,weatherlink.com 1.10,2013-07-06 09:09:00,
2013-07-06 02:24:00,67.7,62.0,29.77,SW,236,0.0,1.0,83,0.00,,,0.00,weatherlink.com 1.10,2013-07-06 09:24:00,
2013-07-06 02:39:00,67.6,62.0,29.76,ESE,122,0.0,2.0,83,0.00,,,0.00,weatherlink.com 1.10,2013-07-06 09:39:00,
2013-07-06 02:54:00,67.7,62.0,29.76,SW,233,0.0,4.0,83,0.00,,,0.00,weatherlink.com 1.10,2013-07-06 09:54:00,
2013-07-06 03:09:00,67.7,62.0,29.75,SW,235,0.0,1.0,83,0.00,,,0.00,weatherlink.com 1.10,2013-07-06 10:09:00,
2013-07-06 03:24:00,67.8,63.0,29.75,North,8,1.0,2.0,83,0.00,,,0.00,weatherlink.com 1.10,2013-07-06 10:24:00,
2013-07-06 03:39:00,67.9,62.0,29.75,ENE,75,0.0,2.0,82,0.00,,,0.00,weatherlink.com 1.10,2013-07-06 10:39:00,
2013-07-06 03:54:00,67.9,62.0,29.75,NW,320,1.0,2.0,82,0.00,,,0.00,weatherlink.com 1.10,2013-07-06 10:54:00,
2013-07-06 04:09:00,68.1,62.0,29.75,NW,323,1.0,1.0,82,0.00,,,0.00,weatherlink.com 1.10,2013-07-06 11:09:00,
2013-07-06 04:24:00,68.2,63.0,29.75,SE,145,2.0,2.0,82,0.00,,,0.00,weatherlink.com 1.10,2013-07-06 11:24:00,
2013-07-06 04:39:00,68.1,62.0,29.75,SSW,206,2.0,3.0,82,0.00,,,0.00,weatherlink.com 1.10,2013-07-06 11:39:00,
2013-07-06 04:54:00,68.1,62.0,29.75,South,181,1.0,3.0,82,0.00,,,0.00,weatherlink.com 1.10,2013-07-06 11:54:00,
2013-07-06 05:10:00,68.0,62.0,29.75,SSE,148,0.0,2.0,82,0.00,,,0.00,weatherlink.com 1.10,2013-07-06 12:10:00,
2013-07-06 05:24:00,68.0,62.0,29.75,SW,228,0.0,2.0,82,0.00,,,0.00,weatherlink.com 1.10,2013-07-06 12:24:00,
2013-07-06 05:39:00,68.0,62.0,29.76,WSW,241,0.0,1.0,82,0.00,,,0.00,weatherlink.com 1.10,2013-07-06 12:39:00,
2013-07-06 05:54:00,68.0,62.0,29.76,WSW,241,0.0,1.0,82,0.00,,,0.00,weatherlink.com 1.10,2013-07-06 12:54:00,
2013-07-06 06:09:00,68.1,62.0,29.76,SSW,195,0.0,1.0,81,0.00,,,0.00,weatherlink.com 1.10,2013-07-06 13:09:00,
2013-07-06 06:24:00,68.2,62.0,29.76,SSE,156,0.0,2.0,81,0.00,,,0.00,weatherlink.com 1.10,2013-07-06 13:24:00,
2013-07-06 06:39:00,68.1,62.0,29.76,SE,144,0.0,2.0,81,0.00,,,0.00,weatherlink.com 1.10,2013-07-06 13:39:00,
2013-07-06 06:54:00,68.1,62.0,29.77,SE,145,1.0,2.0,81,0.00,,,0.00,weatherlink.com 1.10,2013-07-06 13:54:00,
2013-07-06 07:10:00,68.4,62.0,29.77,SE,145,0.0,1.0,81,0.00,,,0.00,weatherlink.com 1.10,2013-07-06 14:10:00,
2013-07-06 07:24:00,68.6,62.0,29.77,SE,133,0.0,1.0,80,0.00,,,0.00,weatherlink.com 1.10,2013-07-06 14:24:00,
2013-07-06 07:39:00,69.0,62.0,29.78,South,173,1.0,1.0,79,0.00,,,0.00,weatherlink.com 1.10,2013-07-06 14:39:00,
2013-07-06 07:54:00,69.4,62.0,29.78,WSW,254,0.0,1.0,77,0.00,,,0.00,weatherlink.com 1.10,2013-07-06 14:54:00,
2013-07-06 08:09:00,69.9,62.0,29.79,SSE,158,2.0,3.0,76,0.00,,,0.00,weatherlink.com 1.10,2013-07-06 15:09:00,
2013-07-06 08:24:00,70.0,61.0,29.79,ENE,74,0.0,3.0,74,0.00,,,0.00,weatherlink.com 1.10,2013-07-06 15:24:00,
2013-07-06 08:39:00,71.1,62.0,29.79,SW,235,1.0,5.0,73,0.00,,,0.00,weatherlink.com 1.10,2013-07-06 15:39:00,
2013-07-06 08:55:00,70.8,63.0,29.80,West,259,3.0,4.0,75,0.00,,,0.00,weatherlink.com 1.10,2013-07-06 15:55:00,
2013-07-06 09:10:00,71.0,63.0,29.80,SW,236,3.0,4.0,76,0.00,,,0.00,weatherlink.com 1.10,2013-07-06 16:10:00,
2013-07-06 09:40:00,71.4,63.0,29.80,SW,236,0.0,5.0,75,0.00,,,0.00,weatherlink.com 1.10,2013-07-06 16:40:00,
2013-07-06 09:55:00,72.4,63.0,29.80,SSE,155,2.0,4.0,73,0.00,,,0.00,weatherlink.com 1.10,2013-07-06 16:55:00,
2013-07-06 10:10:00,73.2,64.0,29.80,West,264,0.0,7.0,72,0.00,,,0.00,weatherlink.com 1.10,2013-07-06 17:10:00,
2013-07-06 10:25:00,73.9,64.0,29.80,South,173,4.0,6.0,70,0.00,,,0.00,weatherlink.com 1.10,2013-07-06 17:25:00,
2013-07-06 10:40:00,74.6,64.0,29.79,SW,227,3.0,9.0,70,0.00,,,0.00,weatherlink.com 1.10,2013-07-06 17:40:00,
2013-07-06 10:55:00,74.7,64.0,29.79,WSW,242,1.0,7.0,70,0.00,,,0.00,weatherlink.com 1.10,2013-07-06 17:55:00,
2013-07-06 11:10:00,75.1,64.0,29.80,SW,219,3.0,7.0,68,0.00,,,0.00,weatherlink.com 1.10,2013-07-06 18:10:00,
2013-07-06 11:25:00,75.5,65.0,29.80,South,188,5.0,6.0,69,0.00,,,0.00,weatherlink.com 1.10,2013-07-06 18:25:00,
2013-07-06 11:40:00,75.5,64.0,29.79,SW,236,4.0,10.0,67,0.00,,,0.00,weatherlink.com 1.10,2013-07-06 18:40:00,
2013-07-06 11:55:00,75.8,64.0,29.79,SW,219,0.0,9.0,66,0.00,,,0.00,weatherlink.com 1.10,2013-07-06 18:55:00,
2013-07-06 12:10:00,76.4,64.0,29.78,WSW,247,5.0,7.0,66,0.00,,,0.00,weatherlink.com 1.10,2013-07-06 19:10:00,
2013-07-06 12:40:00,77.4,64.0,29.78,West,266,3.0,8.0,64,0.00,,,0.00,weatherlink.com 1.10,2013-07-06 19:40:00,
2013-07-06 13:10:00,77.8,65.0,29.77,WSW,255,3.0,7.0,64,0.00,,,0.00,weatherlink.com 1.10,2013-07-06 20:10:00,
2013-07-06 13:40:00,77.1,64.0,29.77,West,272,5.0,9.0,64,0.00,,,0.00,weatherlink.com 1.10,2013-07-06 20:40:00,
2013-07-06 13:55:00,77.4,64.0,29.76,WNW,284,5.0,10.0,63,0.00,,,0.00,weatherlink.com 1.10,2013-07-06 20:55:00,
2013-07-06 14:10:00,77.7,64.0,29.76,South,190,1.0,9.0,63,0.00,,,0.00,weatherlink.com 1.10,2013-07-06 21:10:00,
2013-07-06 14:40:00,78.1,65.0,29.75,WSW,250,3.0,9.0,64,0.00,,,0.00,weatherlink.com 1.10,2013-07-06 21:40:00,
2013-07-06 15:25:00,78.0,65.0,29.74,SSE,160,5.0,9.0,64,0.00,,,0.00,weatherlink.com 1.10,2013-07-06 22:25:00,
2013-07-06 15:40:00,76.8,64.0,29.73,SSE,153,3.0,10.0,65,0.00,,,0.00,weatherlink.com 1.10,2013-07-06 22:40:00,
2013-07-06 15:55:00,77.0,64.0,29.73,SSE,161,4.0,9.0,65,0.00,,,0.00,weatherlink.com 1.10,2013-07-06 22:55:00,
2013-07-06 16:10:00,78.0,64.0,29.73,SW,214,3.0,8.0,62,0.00,,,0.00,weatherlink.com 1.10,2013-07-06 23:10:00,
2013-07-06 16:40:00,78.2,64.0,29.72,SE,131,5.0,7.0,62,0.00,,,0.00,weatherlink.com 1.10,2013-07-06 23:40:00,
2013-07-06 17:25:00,79.3,63.0,29.71,WSW,251,3.0,7.0,58,0.00,,,0.00,weatherlink.com 1.10,2013-07-07 00:25:00,
2013-07-06 17:40:00,79.7,63.0,29.71,SW,224,3.0,6.0,57,0.00,,,0.00,weatherlink.com 1.10,2013-07-07 00:40:00,
2013-07-06 17:55:00,79.3,63.0,29.71,SE,146,3.0,8.0,58,0.00,,,0.00,weatherlink.com 1.10,2013-07-07 00:55:00,
2013-07-06 18:10:00,78.8,64.0,29.71,ESE,121,6.0,6.0,60,0.00,,,0.00,weatherlink.com 1.10,2013-07-07 01:10:00,
2013-07-06 18:40:00,77.2,64.0,29.71,SSW,206,2.0,7.0,63,0.00,,,0.00,weatherlink.com 1.10,2013-07-07 01:40:00,
2013-07-06 19:10:00,76.6,64.0,29.72,SSW,192,3.0,5.0,65,0.00,,,0.00,weatherlink.com 1.10,2013-07-07 02:10:00,
2013-07-06 19:25:00,76.5,64.0,29.72,NW,313,0.0,5.0,65,0.00,,,0.00,weatherlink.com 1.10,2013-07-07 02:25:00,
2013-07-06 20:55:00,70.7,63.0,29.75,WNW,300,0.0,3.0,76,0.00,,,0.00,weatherlink.com 1.10,2013-07-07 03:55:00,
2013-07-06 21:11:00,70.4,63.0,29.76,West,279,2.0,2.0,77,0.00,,,0.00,weatherlink.com 1.10,2013-07-07 04:11:00,
2013-07-06 21:26:00,70.3,63.0,29.77,WNW,288,1.0,3.0,77,0.00,,,0.00,weatherlink.com 1.10,2013-07-07 04:26:00,
2013-07-06 21:41:00,70.0,63.0,29.77,WNW,292,0.0,3.0,78,0.00,,,0.00,weatherlink.com 1.10,2013-07-07 04:41:00,
2013-07-06 21:56:00,69.9,63.0,29.77,WNW,300,0.0,2.0,78,0.00,,,0.00,weatherlink.com 1.10,2013-07-07 04:56:00,
2013-07-06 22:11:00,69.8,63.0,29.78,NW,322,0.0,2.0,78,0.00,,,0.00,weatherlink.com 1.10,2013-07-07 05:11:00,
2013-07-06 22:26:00,69.8,63.0,29.78,NW,318,0.0,1.0,78,0.00,,,0.00,weatherlink.com 1.10,2013-07-07 05:26:00,
2013-07-06 22:41:00,69.9,63.0,29.78,West,274,0.0,2.0,78,0.00,,,0.00,weatherlink.com 1.10,2013-07-07 05:41:00,
2013-07-06 22:56:00,69.6,63.0,29.78,WSW,251,1.0,4.0,79,0.00,,,0.00,weatherlink.com 1.10,2013-07-07 05:56:00,
2013-07-06 23:11:00,69.3,63.0,29.78,South,170,2.0,4.0,79,0.00,,,0.00,weatherlink.com 1.10,2013-07-07 06:11:00,
2013-07-06 23:26:00,69.0,62.0,29.77,WSW,250,0.0,6.0,79,0.00,,,0.00,weatherlink.com 1.10,2013-07-07 06:26:00,
2013-07-06 23:41:00,68.8,62.0,29.78,SSE,160,1.0,5.0,80,0.00,,,0.00,weatherlink.com 1.10,2013-07-07 06:41:00,
2013-07-06 23:56:00,68.6,62.0,29.78,SSE,155,1.0,5.0,80,0.00,,,0.00,weatherlink.com 1.10,2013-07-07 06:56:00,